createdAt,value
2018-01-24T00:00:04.378Z,-79
2018-01-24T00:01:05.511Z,-78
2018-01-24T00:02:03.428Z,-78
2018-01-24T00:03:03.322Z,-78
2018-01-24T00:04:02.537Z,-79
2018-01-24T00:05:02.389Z,-72
2018-01-24T00:06:04.189Z,-72
2018-01-24T00:07:01.734Z,-72
2018-01-24T00:08:02.897Z,-72
2018-01-24T00:09:03.156Z,-72
2018-01-24T00:10:06.318Z,-72
2018-01-24T00:11:03.707Z,-72
2018-01-24T00:12:02.529Z,-72
2018-01-24T00:13:02.890Z,-73
2018-01-24T00:14:02.898Z,-74
2018-01-24T00:15:05.275Z,-73
2018-01-24T00:16:05.054Z,-74
2018-01-24T00:17:04.917Z,-74
2018-01-24T00:18:04.642Z,-74
2018-01-24T00:19:07.132Z,-75
2018-01-24T00:20:04.756Z,-75
2018-01-24T00:21:02.683Z,-74
2018-01-24T00:22:03.865Z,-74
2018-01-24T00:23:05.288Z,-74
2018-01-24T00:24:02.124Z,-74
2018-01-24T00:25:01.911Z,-78
2018-01-24T00:26:03.130Z,-77
2018-01-24T00:27:04.283Z,-77
2018-01-24T00:28:02.728Z,-77
2018-01-24T00:29:02.370Z,-78
2018-01-24T00:30:05.198Z,-78
2018-01-24T00:31:02.936Z,-78
2018-01-24T00:32:02.773Z,-78
2018-01-24T00:33:04.752Z,-78
2018-01-24T00:34:03.364Z,-79
2018-01-24T00:35:01.735Z,-79
2018-01-24T00:36:03.261Z,-78
2018-01-24T00:37:04.030Z,-78
2018-01-24T00:38:04.208Z,-78
2018-01-24T00:39:02.267Z,-79
2018-01-24T00:40:03.124Z,-79
2018-01-24T00:41:02.896Z,-78
2018-01-24T00:42:02.973Z,-78
2018-01-24T00:43:02.676Z,-78
2018-01-24T00:44:01.974Z,-77
2018-01-24T00:45:02.041Z,-77
2018-01-24T00:46:03.672Z,-77
2018-01-24T00:47:02.897Z,-76
2018-01-24T00:48:03.314Z,-77
2018-01-24T00:49:02.487Z,-78
2018-01-24T00:50:03.003Z,-77
2018-01-24T00:51:02.629Z,-77
2018-01-24T00:52:04.388Z,-78
2018-01-24T00:53:02.925Z,-77
2018-01-24T00:54:02.727Z,-77
2018-01-24T00:55:06.496Z,-78
2018-01-24T00:56:05.438Z,-78
2018-01-24T00:57:04.350Z,-77
2018-01-24T00:58:02.855Z,-77
2018-01-24T00:59:02.087Z,-78
2018-01-24T01:00:03.913Z,-78
2018-01-24T01:01:03.505Z,-77
2018-01-24T01:02:02.002Z,-78
2018-01-24T01:03:01.796Z,-78
2018-01-24T01:04:02.467Z,-78
2018-01-24T01:05:03.521Z,-78
2018-01-24T01:06:03.663Z,-79
2018-01-24T01:07:02.694Z,-79
2018-01-24T01:08:02.669Z,-78
2018-01-24T01:09:03.112Z,-78
2018-01-24T01:10:03.366Z,-79
2018-01-24T01:11:02.601Z,-76
2018-01-24T01:12:02.165Z,-76
2018-01-24T01:13:03.282Z,-77
2018-01-24T01:14:02.863Z,-78
2018-01-24T01:15:04.546Z,-78
2018-01-24T01:16:02.459Z,-78
2018-01-24T01:17:03.532Z,-78
2018-01-24T01:18:03.594Z,-78
2018-01-24T01:19:04.157Z,-78
2018-01-24T01:20:02.431Z,-79
2018-01-24T01:21:03.830Z,-78
2018-01-24T01:22:05.562Z,-78
2018-01-24T01:23:03.640Z,-78
2018-01-24T01:24:02.684Z,-76
2018-01-24T01:25:03.626Z,-76
2018-01-24T01:26:05.284Z,-76
2018-01-24T01:27:02.522Z,-78
2018-01-24T01:28:02.856Z,-78
2018-01-24T01:29:02.631Z,-78
2018-01-24T01:30:03.275Z,-78
2018-01-24T01:31:01.731Z,-79
2018-01-24T01:32:04.656Z,-79
2018-01-24T01:33:01.787Z,-78
2018-01-24T01:34:02.839Z,-76
2018-01-24T01:35:03.437Z,-77
2018-01-24T01:36:02.389Z,-77
2018-01-24T01:37:03.268Z,-77
2018-01-24T01:38:04.643Z,-77
2018-01-24T01:39:02.199Z,-79
2018-01-24T01:40:02.702Z,-77
2018-01-24T01:41:01.928Z,-79
2018-01-24T01:42:03.487Z,-78
2018-01-24T01:43:03.433Z,-73
2018-01-24T01:44:04.717Z,-73
2018-01-24T01:45:02.505Z,-73
2018-01-24T01:46:04.332Z,-73
2018-01-24T01:47:03.031Z,-73
2018-01-24T01:48:05.074Z,-73
2018-01-24T01:49:04.008Z,-73
2018-01-24T01:50:03.785Z,-75
2018-01-24T01:51:05.595Z,-75
2018-01-24T01:52:03.275Z,-75
2018-01-24T01:53:01.824Z,-74
2018-01-24T01:54:01.971Z,-73
2018-01-24T01:55:01.963Z,-75
2018-01-24T01:56:02.097Z,-75
2018-01-24T01:57:02.044Z,-75
2018-01-24T01:58:01.911Z,-75
2018-01-24T01:59:02.036Z,-75
2018-01-24T02:00:02.175Z,-75
2018-01-24T02:01:02.266Z,-74
2018-01-24T02:02:01.945Z,-72
2018-01-24T02:03:01.951Z,-72
2018-01-24T02:04:01.958Z,-72
2018-01-24T02:05:01.812Z,-73
2018-01-24T02:06:01.972Z,-75
2018-01-24T02:07:01.969Z,-74
2018-01-24T02:08:01.987Z,-75
2018-01-24T02:09:01.970Z,-75
2018-01-24T02:10:02.131Z,-74
2018-01-24T02:11:02.071Z,-75
2018-01-24T02:12:02.034Z,-76
2018-01-24T02:13:02.112Z,-76
2018-01-24T02:14:02.722Z,-77
2018-01-24T02:15:02.628Z,-76
2018-01-24T02:16:02.354Z,-78
2018-01-24T02:17:01.986Z,-78
2018-01-24T02:18:02.201Z,-79
2018-01-24T02:19:01.985Z,-79
2018-01-24T02:20:02.168Z,-78
2018-01-24T02:21:02.055Z,-79
2018-01-24T02:22:02.150Z,-78
2018-01-24T02:23:02.194Z,-78
2018-01-24T02:24:02.172Z,-78
2018-01-24T02:25:02.018Z,-78
2018-01-24T02:26:02.255Z,-78
2018-01-24T02:27:02.341Z,-78
2018-01-24T02:28:02.083Z,-78
2018-01-24T02:29:01.968Z,-79
2018-01-24T02:30:02.188Z,-79
2018-01-24T02:31:02.044Z,-72
2018-01-24T02:32:02.036Z,-72
2018-01-24T02:33:02.693Z,-72
2018-01-24T02:34:01.925Z,-75
2018-01-24T02:35:02.047Z,-77
2018-01-24T02:36:02.017Z,-77
2018-01-24T02:37:02.159Z,-77
2018-01-24T02:38:02.487Z,-78
2018-01-24T02:39:02.179Z,-79
2018-01-24T02:40:02.338Z,-79
2018-01-24T02:41:02.107Z,-77
2018-01-24T02:42:02.093Z,-79
2018-01-24T02:43:02.169Z,-79
2018-01-24T02:44:01.992Z,-78
2018-01-24T02:45:02.014Z,-78
2018-01-24T02:46:02.024Z,-78
2018-01-24T02:47:02.154Z,-79
2018-01-24T02:48:02.037Z,-78
2018-01-24T02:49:02.169Z,-79
2018-01-24T02:50:02.265Z,-72
2018-01-24T02:51:02.076Z,-72
2018-01-24T02:52:02.118Z,-72
2018-01-24T02:53:01.990Z,-73
2018-01-24T02:54:02.234Z,-73
2018-01-24T02:55:02.169Z,-73
2018-01-24T02:56:02.102Z,-72
2018-01-24T02:57:02.214Z,-72
2018-01-24T02:58:02.139Z,-73
2018-01-24T02:59:02.133Z,-74
2018-01-24T03:00:02.347Z,-76
2018-01-24T03:01:02.104Z,-77
2018-01-24T03:02:01.965Z,-77
2018-01-24T03:03:02.262Z,-78
2018-01-24T03:04:02.115Z,-79
2018-01-24T03:05:02.049Z,-78
2018-01-24T03:06:02.191Z,-78
2018-01-24T03:07:02.213Z,-78
2018-01-24T03:08:02.142Z,-78
2018-01-24T03:09:01.953Z,-79
2018-01-24T03:10:01.993Z,-79
2018-01-24T03:11:02.073Z,-79
2018-01-24T03:12:02.216Z,-79
2018-01-24T03:13:02.299Z,-79
2018-01-24T03:14:02.204Z,-79
2018-01-24T03:15:02.154Z,-78
2018-01-24T03:16:02.298Z,-79
2018-01-24T03:17:02.216Z,-79
2018-01-24T03:18:02.189Z,-77
2018-01-24T03:19:02.251Z,-78
2018-01-24T03:20:02.313Z,-77
2018-01-24T03:21:02.188Z,-78
2018-01-24T03:22:01.986Z,-78
2018-01-24T03:23:02.082Z,-78
2018-01-24T03:25:02.920Z,-78
2018-01-24T03:26:01.962Z,-79
2018-01-24T03:27:02.306Z,-77
2018-01-24T03:28:02.095Z,-76
2018-01-24T03:29:02.228Z,-77
2018-01-24T03:30:02.269Z,-77
2018-01-24T03:31:02.362Z,-77
2018-01-24T03:32:02.133Z,-76
2018-01-24T03:33:02.169Z,-76
2018-01-24T03:34:02.337Z,-78
2018-01-24T03:35:02.102Z,-78
2018-01-24T03:36:02.131Z,-78
2018-01-24T03:37:02.076Z,-77
2018-01-24T03:38:02.016Z,-77
2018-01-24T03:39:02.068Z,-78
2018-01-24T03:40:01.964Z,-78
2018-01-24T03:41:02.011Z,-78
2018-01-24T03:42:02.042Z,-77
2018-01-24T03:43:02.408Z,-78
2018-01-24T03:44:02.361Z,-78
2018-01-24T03:45:02.101Z,-79
2018-01-24T03:46:02.003Z,-76
2018-01-24T03:47:02.133Z,-77
2018-01-24T03:48:02.130Z,-77
2018-01-24T03:49:02.149Z,-77
2018-01-24T03:50:02.143Z,-76
2018-01-24T03:51:02.316Z,-73
2018-01-24T03:52:02.283Z,-73
2018-01-24T03:53:02.381Z,-73
2018-01-24T03:54:02.087Z,-72
2018-01-24T03:55:02.316Z,-73
2018-01-24T03:56:02.198Z,-75
2018-01-24T03:57:02.306Z,-73
2018-01-24T03:58:02.049Z,-72
2018-01-24T03:59:02.329Z,-74
2018-01-24T04:00:02.382Z,-79
2018-01-24T04:01:02.348Z,-78
2018-01-24T04:02:02.224Z,-79
2018-01-24T04:03:02.074Z,-79
2018-01-24T04:04:02.265Z,-79
2018-01-24T04:05:02.299Z,-77
2018-01-24T04:06:02.394Z,-77
2018-01-24T04:07:02.465Z,-79
2018-01-24T04:08:02.351Z,-78
2018-01-24T04:09:02.155Z,-79
2018-01-24T04:10:02.427Z,-78
2018-01-24T04:11:02.076Z,-78
2018-01-24T04:12:02.272Z,-77
2018-01-24T04:13:02.298Z,-77
2018-01-24T04:14:02.234Z,-77
2018-01-24T04:15:02.206Z,-73
2018-01-24T04:16:02.262Z,-78
2018-01-24T04:17:02.126Z,-78
2018-01-24T04:18:02.102Z,-78
2018-01-24T04:19:02.122Z,-79
2018-01-24T04:20:02.190Z,-78
2018-01-24T04:21:02.455Z,-79
2018-01-24T04:22:02.300Z,-79
2018-01-24T04:23:01.996Z,-78
2018-01-24T04:24:02.172Z,-79
2018-01-24T04:25:02.156Z,-76
2018-01-24T04:26:02.413Z,-76
2018-01-24T04:27:02.282Z,-77
2018-01-24T04:28:02.070Z,-78
2018-01-24T04:29:02.246Z,-78
2018-01-24T04:30:02.261Z,-78
2018-01-24T04:31:02.051Z,-78
2018-01-24T04:32:02.216Z,-78
2018-01-24T04:33:02.205Z,-78
2018-01-24T04:34:02.136Z,-78
2018-01-24T04:35:02.146Z,-78
2018-01-24T04:36:02.189Z,-72
2018-01-24T04:37:02.339Z,-73
2018-01-24T04:38:02.169Z,-73
2018-01-24T04:39:01.947Z,-77
2018-01-24T04:40:02.014Z,-78
2018-01-24T04:41:01.963Z,-78
2018-01-24T04:42:02.428Z,-78
2018-01-24T04:43:02.195Z,-78
2018-01-24T04:44:02.235Z,-78
2018-01-24T04:45:02.489Z,-77
2018-01-24T04:46:02.022Z,-77
2018-01-24T04:47:02.166Z,-78
2018-01-24T04:48:02.297Z,-75
2018-01-24T04:49:02.350Z,-75
2018-01-24T04:50:02.264Z,-75
2018-01-24T04:51:02.186Z,-74
2018-01-24T04:52:02.333Z,-74
2018-01-24T04:53:02.215Z,-74
2018-01-24T04:54:02.141Z,-75
2018-01-24T04:57:02.331Z,-75
2018-01-24T04:58:02.474Z,-75
2018-01-24T04:59:02.417Z,-72
2018-01-24T05:00:02.480Z,-72
2018-01-24T05:01:02.282Z,-72
2018-01-24T05:02:02.275Z,-73
2018-01-24T05:03:02.476Z,-73
2018-01-24T05:04:02.290Z,-75
2018-01-24T05:05:02.336Z,-75
2018-01-24T05:06:02.337Z,-74
2018-01-24T05:07:02.414Z,-74
2018-01-24T05:08:02.420Z,-73
2018-01-24T05:09:02.467Z,-72
2018-01-24T05:10:02.230Z,-72
2018-01-24T05:11:02.309Z,-72
2018-01-24T05:12:02.553Z,-72
2018-01-24T05:13:02.386Z,-72
2018-01-24T05:14:02.591Z,-75
2018-01-24T05:15:02.528Z,-75
2018-01-24T05:16:02.546Z,-74
2018-01-24T05:17:02.225Z,-78
2018-01-24T05:18:02.256Z,-77
2018-01-24T05:19:02.904Z,-78
2018-01-24T05:20:02.416Z,-78
2018-01-24T05:21:02.423Z,-78
2018-01-24T05:22:02.441Z,-77
2018-01-24T05:23:02.174Z,-77
2018-01-24T05:24:03.453Z,-77
2018-01-24T05:25:02.347Z,-78
2018-01-24T05:26:02.352Z,-78
2018-01-24T05:27:02.374Z,-78
2018-01-24T05:28:02.484Z,-78
2018-01-24T05:29:02.384Z,-78
2018-01-24T05:30:02.269Z,-78
2018-01-24T05:31:02.547Z,-77
2018-01-24T05:32:02.553Z,-78
2018-01-24T05:33:02.236Z,-78
2018-01-24T05:34:02.509Z,-78
2018-01-24T05:35:02.335Z,-79
2018-01-24T05:36:03.186Z,-77
2018-01-24T05:37:02.622Z,-78
2018-01-24T05:38:02.249Z,-77
2018-01-24T05:39:02.079Z,-77
2018-01-24T05:40:02.201Z,-78
2018-01-24T05:41:02.338Z,-78
2018-01-24T05:42:02.199Z,-78
2018-01-24T05:43:02.353Z,-78
2018-01-24T05:44:02.360Z,-78
2018-01-24T05:45:02.320Z,-78
2018-01-24T05:46:02.284Z,-78
2018-01-24T05:47:02.327Z,-78
2018-01-24T05:48:02.516Z,-78
2018-01-24T05:49:02.249Z,-78
2018-01-24T05:50:02.506Z,-78
2018-01-24T05:51:02.411Z,-78
2018-01-24T05:52:02.346Z,-78
2018-01-24T05:53:02.478Z,-78
2018-01-24T05:54:02.547Z,-77
2018-01-24T05:55:02.438Z,-76
2018-01-24T05:56:02.299Z,-77
2018-01-24T05:57:02.395Z,-78
2018-01-24T05:58:02.510Z,-78
2018-01-24T05:59:02.567Z,-78
2018-01-24T06:00:02.837Z,-78
2018-01-24T06:01:02.449Z,-78
2018-01-24T06:02:02.476Z,-78
2018-01-24T06:03:02.317Z,-77
2018-01-24T06:04:02.518Z,-78
2018-01-24T06:05:02.494Z,-78
2018-01-24T06:06:02.378Z,-78
2018-01-24T06:07:02.233Z,-78
2018-01-24T06:08:02.439Z,-78
2018-01-24T06:09:02.399Z,-78
2018-01-24T06:10:02.453Z,-78
2018-01-24T06:11:02.459Z,-78
2018-01-24T06:12:03.275Z,-78
2018-01-24T06:13:02.502Z,-74
2018-01-24T06:14:02.594Z,-74
2018-01-24T06:15:02.499Z,-72
2018-01-24T06:16:02.725Z,-74
2018-01-24T06:17:02.589Z,-73
2018-01-24T06:18:02.443Z,-73
2018-01-24T06:19:02.655Z,-74
2018-01-24T06:20:02.459Z,-74
2018-01-24T06:21:02.333Z,-72
2018-01-24T06:22:02.629Z,-74
2018-01-24T06:23:02.719Z,-74
2018-01-24T06:24:02.404Z,-74
2018-01-24T06:25:02.582Z,-74
2018-01-24T06:26:02.435Z,-75
2018-01-24T06:27:02.508Z,-75
2018-01-24T06:28:02.602Z,-74
2018-01-24T06:29:02.320Z,-75
2018-01-24T06:30:02.668Z,-72
2018-01-24T06:31:02.533Z,-72
2018-01-24T06:32:02.472Z,-74
2018-01-24T06:33:02.599Z,-74
2018-01-24T06:34:02.386Z,-75
2018-01-24T06:35:02.394Z,-75
2018-01-24T06:36:02.758Z,-75
2018-01-24T06:37:02.316Z,-74
2018-01-24T06:38:02.343Z,-75
2018-01-24T06:39:02.386Z,-77
2018-01-24T06:40:02.572Z,-77
2018-01-24T06:41:02.420Z,-78
2018-01-24T06:42:02.529Z,-79
2018-01-24T06:43:01.523Z,-77
2018-01-24T06:44:01.983Z,-78
2018-01-24T06:45:01.715Z,-79
2018-01-24T06:46:01.601Z,-79
2018-01-24T06:47:01.591Z,-79
2018-01-24T06:48:01.572Z,-79
2018-01-24T06:49:01.602Z,-79
2018-01-24T06:50:01.634Z,-78
2018-01-24T06:51:01.583Z,-79
2018-01-24T06:52:01.513Z,-78
2018-01-24T06:53:01.494Z,-79
2018-01-24T06:54:01.430Z,-79
2018-01-24T06:55:01.814Z,-77
2018-01-24T06:56:01.320Z,-77
2018-01-24T06:57:01.393Z,-77
2018-01-24T06:58:01.704Z,-78
2018-01-24T06:59:01.766Z,-76
2018-01-24T07:00:03.245Z,-77
2018-01-24T07:01:04.111Z,-77
2018-01-24T07:02:01.574Z,-77
2018-01-24T07:03:01.651Z,-78
2018-01-24T07:04:01.833Z,-79
2018-01-24T07:05:01.609Z,-79
2018-01-24T07:06:01.567Z,-79
2018-01-24T07:07:01.744Z,-79
2018-01-24T07:08:01.444Z,-79
2018-01-24T07:09:02.128Z,-78
2018-01-24T07:10:01.834Z,-78
2018-01-24T07:11:01.621Z,-78
2018-01-24T07:12:01.525Z,-79
2018-01-24T07:13:01.986Z,-78
2018-01-24T07:14:01.724Z,-80
2018-01-24T07:15:01.853Z,-79
2018-01-24T07:16:01.684Z,-79
2018-01-24T07:17:01.479Z,-79
2018-01-24T07:18:01.550Z,-79
2018-01-24T07:19:01.674Z,-77
2018-01-24T07:20:02.554Z,-79
2018-01-24T07:21:01.995Z,-79
2018-01-24T07:22:01.515Z,-79
2018-01-24T07:23:01.611Z,-79
2018-01-24T07:24:01.539Z,-79
2018-01-24T07:25:01.522Z,-79
2018-01-24T07:26:01.777Z,-78
2018-01-24T07:27:01.986Z,-79
2018-01-24T07:28:02.147Z,-79
2018-01-24T07:29:01.562Z,-78
2018-01-24T07:30:01.593Z,-77
2018-01-24T07:31:01.802Z,-77
2018-01-24T07:32:01.735Z,-79
2018-01-24T07:33:01.666Z,-78
2018-01-24T07:34:01.571Z,-79
2018-01-24T07:35:03.136Z,-78
2018-01-24T07:36:02.004Z,-79
2018-01-24T07:37:02.763Z,-79
2018-01-24T07:38:02.869Z,-79
2018-01-24T07:39:03.880Z,-79
2018-01-24T07:40:03.082Z,-77
2018-01-24T07:41:04.954Z,-77
2018-01-24T07:42:02.132Z,-77
2018-01-24T07:43:01.768Z,-78
2018-01-24T07:44:04.173Z,-78
2018-01-24T07:45:03.083Z,-79
2018-01-24T07:46:04.859Z,-78
2018-01-24T07:47:10.448Z,-78
2018-01-24T07:48:02.418Z,-79
2018-01-24T07:49:02.441Z,-78
2018-01-24T07:50:03.420Z,-78
2018-01-24T07:51:03.438Z,-79
2018-01-24T07:52:05.989Z,-79
2018-01-24T07:53:06.757Z,-78
2018-01-24T07:54:02.341Z,-79
2018-01-24T07:55:05.298Z,-79
2018-01-24T07:56:04.924Z,-78
2018-01-24T07:57:01.672Z,-78
2018-01-24T07:58:06.221Z,-78
2018-01-24T07:59:05.385Z,-78
2018-01-24T08:00:02.859Z,-79
2018-01-24T08:01:02.793Z,-79
2018-01-24T08:02:03.230Z,-77
2018-01-24T08:03:03.441Z,-79
2018-01-24T08:04:03.079Z,-77
2018-01-24T08:05:03.241Z,-78
2018-01-24T08:06:03.592Z,-78
2018-01-24T08:07:03.802Z,-77
2018-01-24T08:08:03.055Z,-79
2018-01-24T08:09:01.689Z,-79
2018-01-24T08:10:01.740Z,-79
2018-01-24T08:11:01.754Z,-79
2018-01-24T08:12:01.759Z,-79
2018-01-24T08:13:01.708Z,-78
2018-01-24T08:14:02.109Z,-78
2018-01-24T08:15:01.642Z,-79
2018-01-24T08:16:01.870Z,-78
2018-01-24T08:17:01.690Z,-77
2018-01-24T08:18:01.744Z,-78
2018-01-24T08:19:01.529Z,-79
2018-01-24T08:20:01.792Z,-78
2018-01-24T08:21:01.925Z,-79
2018-01-24T08:22:01.599Z,-79
2018-01-24T08:23:01.679Z,-79
2018-01-24T08:24:01.820Z,-79
2018-01-24T08:25:01.865Z,-77
2018-01-24T08:26:01.900Z,-77
2018-01-24T08:27:01.878Z,-77
2018-01-24T08:28:01.845Z,-77
2018-01-24T08:29:01.948Z,-77
2018-01-24T08:30:01.721Z,-78
2018-01-24T08:31:01.759Z,-77
2018-01-24T08:32:01.940Z,-77
2018-01-24T08:33:02.414Z,-77
2018-01-24T08:34:01.974Z,-73
2018-01-24T08:35:01.793Z,-74
2018-01-24T08:36:01.971Z,-75
2018-01-24T08:37:01.856Z,-74
2018-01-24T08:38:02.156Z,-75
2018-01-24T08:39:02.484Z,-75
2018-01-24T08:40:01.845Z,-74
2018-01-24T08:41:01.815Z,-75
2018-01-24T08:42:01.863Z,-75
2018-01-24T08:43:01.897Z,-75
2018-01-24T08:44:01.647Z,-75
2018-01-24T08:45:01.797Z,-75
2018-01-24T08:46:01.716Z,-73
2018-01-24T08:47:01.632Z,-72
2018-01-24T08:48:02.052Z,-75
2018-01-24T08:49:01.755Z,-74
2018-01-24T08:50:02.020Z,-75
2018-01-24T08:51:01.912Z,-75
2018-01-24T08:52:01.765Z,-74
2018-01-24T08:53:01.692Z,-75
2018-01-24T08:54:01.743Z,-75
2018-01-24T08:55:01.865Z,-72
2018-01-24T08:56:02.049Z,-75
2018-01-24T08:57:01.706Z,-74
2018-01-24T08:58:01.663Z,-76
2018-01-24T08:59:01.891Z,-75
2018-01-24T09:00:01.745Z,-76
2018-01-24T09:01:02.058Z,-74
2018-01-24T09:02:01.992Z,-75
2018-01-24T09:03:01.733Z,-76
2018-01-24T09:04:02.385Z,-75
2018-01-24T09:05:01.808Z,-74
2018-01-24T09:06:01.756Z,-74
2018-01-24T09:07:01.804Z,-75
2018-01-24T09:08:01.849Z,-76
2018-01-24T09:09:01.701Z,-75
2018-01-24T09:10:01.832Z,-76
2018-01-24T09:11:01.846Z,-75
2018-01-24T09:12:01.968Z,-75
2018-01-24T09:13:02.687Z,-74
2018-01-24T09:14:02.061Z,-75
2018-01-24T09:15:02.034Z,-75
2018-01-24T09:16:02.000Z,-76
2018-01-24T09:17:01.963Z,-74
2018-01-24T09:18:01.897Z,-75
2018-01-24T09:19:01.912Z,-75
2018-01-24T09:20:02.011Z,-74
2018-01-24T09:21:01.805Z,-76
2018-01-24T09:22:01.851Z,-74
2018-01-24T09:23:02.037Z,-74
2018-01-24T09:24:01.952Z,-75
2018-01-24T09:25:01.796Z,-78
2018-01-24T09:26:01.947Z,-78
2018-01-24T09:27:01.851Z,-78
2018-01-24T09:28:01.948Z,-77
2018-01-24T09:29:01.920Z,-77
2018-01-24T09:30:02.006Z,-77
2018-01-24T09:31:01.959Z,-77
2018-01-24T09:32:02.707Z,-78
2018-01-24T09:33:03.054Z,-77
2018-01-24T09:34:03.297Z,-77
2018-01-24T09:35:02.542Z,-75
2018-01-24T09:36:02.766Z,-77
2018-01-24T09:37:03.091Z,-77
2018-01-24T09:38:03.316Z,-77
2018-01-24T09:39:02.302Z,-77
2018-01-24T09:40:03.726Z,-78
2018-01-24T09:41:03.449Z,-78
2018-01-24T09:42:02.376Z,-76
2018-01-24T09:43:02.553Z,-77
2018-01-24T09:44:01.887Z,-78
2018-01-24T09:45:02.834Z,-77
2018-01-24T09:46:02.552Z,-77
2018-01-24T09:47:02.539Z,-78
2018-01-24T09:48:03.098Z,-77
2018-01-24T09:49:02.138Z,-78
2018-01-24T09:50:03.000Z,-76
2018-01-24T09:51:03.148Z,-77
2018-01-24T09:52:03.234Z,-78
2018-01-24T09:53:02.540Z,-77
2018-01-24T09:54:02.584Z,-78
2018-01-24T09:55:02.951Z,-77
2018-01-24T09:56:02.791Z,-77
2018-01-24T09:57:03.128Z,-77
2018-01-24T09:58:03.167Z,-77
2018-01-24T09:59:01.989Z,-78
2018-01-24T10:00:02.827Z,-78
2018-01-24T10:01:03.094Z,-78
2018-01-24T10:02:03.150Z,-78
2018-01-24T10:03:03.267Z,-77
2018-01-24T10:04:02.752Z,-78
2018-01-24T10:05:01.903Z,-78
2018-01-24T10:06:02.784Z,-78
2018-01-24T10:07:02.973Z,-78
2018-01-24T10:08:02.607Z,-77
2018-01-24T10:09:02.975Z,-78
2018-01-24T10:10:01.961Z,-78
2018-01-24T10:11:02.877Z,-77
2018-01-24T10:12:02.860Z,-77
2018-01-24T10:13:03.110Z,-78
2018-01-24T10:14:03.656Z,-77
2018-01-24T10:15:02.754Z,-78
2018-01-24T10:16:03.129Z,-78
2018-01-24T10:17:02.086Z,-78
2018-01-24T10:18:04.144Z,-77
2018-01-24T10:19:03.353Z,-77
2018-01-24T10:20:02.751Z,-78
2018-01-24T10:21:02.752Z,-78
2018-01-24T10:22:03.938Z,-77
2018-01-24T10:23:03.323Z,-76
2018-01-24T10:24:02.545Z,-77
2018-01-24T10:25:02.670Z,-77
2018-01-24T10:26:02.263Z,-77
2018-01-24T10:27:03.351Z,-78
2018-01-24T10:28:02.534Z,-77
2018-01-24T10:29:02.674Z,-78
2018-01-24T10:30:02.078Z,-78
2018-01-24T10:31:02.100Z,-75
2018-01-24T10:32:02.768Z,-76
2018-01-24T10:33:03.325Z,-75
2018-01-24T10:34:03.185Z,-77
2018-01-24T10:35:03.411Z,-77
2018-01-24T10:36:04.006Z,-77
2018-01-24T10:37:02.953Z,-77
2018-01-24T10:38:02.893Z,-77
2018-01-24T10:39:03.332Z,-77
2018-01-24T10:40:03.281Z,-77
2018-01-24T10:41:03.135Z,-77
2018-01-24T10:42:02.888Z,-77
2018-01-24T10:43:02.944Z,-77
2018-01-24T10:44:01.854Z,-77
2018-01-24T10:45:03.151Z,-77
2018-01-24T10:46:02.747Z,-77
2018-01-24T10:47:02.758Z,-77
2018-01-24T10:48:03.181Z,-77
2018-01-24T10:49:03.015Z,-77
2018-01-24T10:50:03.226Z,-77
2018-01-24T10:51:02.948Z,-77
2018-01-24T10:52:02.063Z,-78
2018-01-24T10:53:02.974Z,-77
2018-01-24T10:54:02.620Z,-77
2018-01-24T10:55:02.814Z,-78
2018-01-24T10:56:03.008Z,-78
2018-01-24T10:57:03.146Z,-78
2018-01-24T10:58:02.747Z,-78
2018-01-24T10:59:02.806Z,-77
2018-01-24T11:00:02.795Z,-78
2018-01-24T11:01:03.077Z,-77
2018-01-24T11:02:02.983Z,-78
2018-01-24T11:03:03.010Z,-78
2018-01-24T11:04:02.242Z,-77
2018-01-24T11:05:02.900Z,-77
2018-01-24T11:06:02.776Z,-77
2018-01-24T11:07:03.209Z,-76
2018-01-24T11:08:03.122Z,-77
2018-01-24T11:09:02.780Z,-75
2018-01-24T11:10:03.273Z,-75
2018-01-24T11:11:03.597Z,-75
2018-01-24T11:12:03.021Z,-72
2018-01-24T11:13:02.857Z,-71
2018-01-24T11:14:02.719Z,-71
2018-01-24T11:15:02.848Z,-72
2018-01-24T11:16:03.214Z,-72
2018-01-24T11:17:03.055Z,-72
2018-01-24T11:18:03.169Z,-72
2018-01-24T11:19:03.325Z,-72
2018-01-24T11:20:03.167Z,-72
2018-01-24T11:21:03.008Z,-72
2018-01-24T11:22:03.085Z,-72
2018-01-24T11:23:03.875Z,-72
2018-01-24T11:24:02.972Z,-71
2018-01-24T11:25:02.983Z,-72
2018-01-24T11:26:03.351Z,-72
2018-01-24T11:27:03.033Z,-71
2018-01-24T11:28:03.191Z,-71
2018-01-24T11:29:02.883Z,-72
2018-01-24T11:30:02.498Z,-72
2018-01-24T11:31:01.952Z,-74
2018-01-24T11:32:02.143Z,-74
2018-01-24T11:33:01.793Z,-74
2018-01-24T11:34:01.837Z,-74
2018-01-24T11:35:02.060Z,-73
2018-01-24T11:36:02.056Z,-73
2018-01-24T11:37:01.973Z,-73
2018-01-24T11:38:02.085Z,-74
2018-01-24T11:39:01.801Z,-74
2018-01-24T11:40:02.574Z,-72
2018-01-24T11:41:02.016Z,-72
2018-01-24T11:42:01.890Z,-72
2018-01-24T11:43:02.135Z,-75
2018-01-24T11:44:02.197Z,-74
2018-01-24T11:45:02.084Z,-74
2018-01-24T11:46:01.984Z,-75
2018-01-24T11:47:01.859Z,-73
2018-01-24T11:48:01.932Z,-74
2018-01-24T11:49:02.244Z,-73
2018-01-24T11:50:02.013Z,-74
2018-01-24T11:51:02.149Z,-75
2018-01-24T11:52:02.143Z,-75
2018-01-24T11:53:02.302Z,-75
2018-01-24T11:54:02.092Z,-75
2018-01-24T11:55:02.676Z,-74
2018-01-24T11:56:02.201Z,-74
2018-01-24T11:57:02.122Z,-75
2018-01-24T11:58:01.911Z,-73
2018-01-24T11:59:01.904Z,-74
2018-01-24T12:00:02.021Z,-74
2018-01-24T12:01:02.122Z,-74
2018-01-24T12:02:01.822Z,-72
2018-01-24T12:03:01.883Z,-75
2018-01-24T12:04:02.184Z,-74
2018-01-24T12:05:02.649Z,-75
2018-01-24T12:06:02.080Z,-75
2018-01-24T12:07:01.757Z,-75
2018-01-24T12:08:02.047Z,-72
2018-01-24T12:09:02.087Z,-73
2018-01-24T12:10:02.206Z,-73
2018-01-24T12:11:01.877Z,-75
2018-01-24T12:12:01.984Z,-75
2018-01-24T12:13:02.111Z,-75
2018-01-24T12:14:02.234Z,-74
2018-01-24T12:15:02.206Z,-74
2018-01-24T12:16:01.970Z,-73
2018-01-24T12:17:02.126Z,-74
2018-01-24T12:18:02.055Z,-73
2018-01-24T12:19:02.244Z,-75
2018-01-24T12:20:02.306Z,-73
2018-01-24T12:21:02.176Z,-74
2018-01-24T12:22:01.913Z,-74
2018-01-24T12:23:02.027Z,-74
2018-01-24T12:24:02.046Z,-74
2018-01-24T12:25:02.250Z,-74
2018-01-24T12:26:02.081Z,-74
2018-01-24T12:27:01.944Z,-73
2018-01-24T12:28:02.106Z,-72
2018-01-24T12:29:02.213Z,-75
2018-01-24T12:30:02.131Z,-75
2018-01-24T12:31:02.854Z,-74
2018-01-24T12:32:01.938Z,-74
2018-01-24T12:33:02.304Z,-74
2018-01-24T12:34:02.007Z,-75
2018-01-24T12:35:02.165Z,-74
2018-01-24T12:36:01.929Z,-74
2018-01-24T12:37:01.924Z,-72
2018-01-24T12:38:02.251Z,-74
2018-01-24T12:39:02.030Z,-74
2018-01-24T12:40:02.147Z,-75
2018-01-24T12:41:02.006Z,-75
2018-01-24T12:42:01.851Z,-74
2018-01-24T12:43:02.036Z,-74
2018-01-24T12:44:02.169Z,-75
2018-01-24T12:45:02.384Z,-75
2018-01-24T12:46:02.079Z,-74
2018-01-24T12:47:02.158Z,-73
2018-01-24T12:48:01.995Z,-75
2018-01-24T12:49:02.064Z,-73
2018-01-24T12:50:02.244Z,-75
2018-01-24T12:51:01.926Z,-74
2018-01-24T12:52:01.940Z,-75
2018-01-24T12:53:02.103Z,-75
2018-01-24T12:54:01.803Z,-75
2018-01-24T12:55:02.040Z,-75
2018-01-24T12:56:02.488Z,-73
2018-01-24T12:57:01.996Z,-73
2018-01-24T12:58:02.044Z,-73
2018-01-24T12:59:02.403Z,-75
2018-01-24T13:00:02.000Z,-75
2018-01-24T13:01:02.216Z,-75
2018-01-24T13:02:02.238Z,-75
2018-01-24T13:03:02.110Z,-75
2018-01-24T13:04:01.833Z,-75
2018-01-24T13:05:02.169Z,-75
2018-01-24T13:06:01.910Z,-74
2018-01-24T13:07:02.994Z,-73
2018-01-24T13:08:02.195Z,-74
2018-01-24T13:09:02.014Z,-76
2018-01-24T13:10:02.193Z,-76
2018-01-24T13:11:02.174Z,-77
2018-01-24T13:12:02.137Z,-76
2018-01-24T13:13:02.092Z,-76
2018-01-24T13:14:02.399Z,-77
2018-01-24T13:15:02.196Z,-78
2018-01-24T13:16:02.339Z,-76
2018-01-24T13:17:02.243Z,-75
2018-01-24T13:18:02.167Z,-73
2018-01-24T13:19:02.369Z,-76
2018-01-24T13:20:02.315Z,-76
2018-01-24T13:21:02.416Z,-76
2018-01-24T13:22:01.950Z,-77
2018-01-24T13:23:02.150Z,-76
2018-01-24T13:24:02.066Z,-76
2018-01-24T13:25:02.190Z,-75
2018-01-24T13:26:02.428Z,-74
2018-01-24T13:27:02.233Z,-76
2018-01-24T13:28:02.130Z,-76
2018-01-24T13:29:02.242Z,-75
2018-01-24T13:30:02.091Z,-75
2018-01-24T13:31:02.250Z,-76
2018-01-24T13:32:02.019Z,-74
2018-01-24T13:33:02.071Z,-76
2018-01-24T13:34:02.133Z,-76
2018-01-24T13:35:02.265Z,-75
2018-01-24T13:36:02.311Z,-75
2018-01-24T13:38:06.168Z,-76
2018-01-24T13:39:02.328Z,-75
2018-01-24T13:40:02.057Z,-75
2018-01-24T13:41:02.113Z,-75
2018-01-24T13:42:02.400Z,-75
2018-01-24T13:43:02.460Z,-75
2018-01-24T13:44:02.390Z,-74
2018-01-24T13:45:02.423Z,-74
2018-01-24T13:46:02.122Z,-74
2018-01-24T13:47:02.313Z,-75
2018-01-24T13:48:02.095Z,-77
2018-01-24T13:49:02.415Z,-77
2018-01-24T13:50:02.244Z,-77